createdAt,value
2023-05-22T00:01:51.889Z,67.12
2023-05-22T00:04:22.052Z,67.03
2023-05-22T00:06:49.485Z,66.60
2023-05-22T00:09:16.262Z,66.88
2023-05-22T00:11:43.217Z,67.36
2023-05-22T00:14:09.912Z,66.59
2023-05-22T00:16:36.661Z,66.94
2023-05-22T00:19:03.854Z,66.91
2023-05-22T00:21:34.667Z,66.47
2023-05-22T00:24:02.128Z,66.29
2023-05-22T00:26:28.881Z,66.30
2023-05-22T00:28:55.720Z,66.60
2023-05-22T00:31:22.936Z,66.60
2023-05-22T00:33:49.972Z,66.08
2023-05-22T00:36:22.206Z,67.64
2023-05-22T00:38:48.966Z,66.91
2023-05-22T00:41:15.838Z,66.67
2023-05-22T00:43:42.665Z,65.87
2023-05-22T00:46:09.975Z,66.75
2023-05-22T00:48:36.746Z,66.20
2023-05-22T00:51:03.991Z,66.44
2023-05-22T00:53:31.468Z,66.14
2023-05-22T00:55:59.766Z,66.04
2023-05-22T00:58:27.509Z,66.18
2023-05-22T01:00:56.859Z,65.80
2023-05-22T01:03:26.975Z,66.01
2023-05-22T01:05:54.312Z,66.59
2023-05-22T01:08:21.488Z,66.63
2023-05-22T01:10:55.980Z,66.13
2023-05-22T01:13:42.847Z,65.83
2023-05-22T01:16:30.109Z,66.32
2023-05-22T01:19:16.063Z,66.19
2023-05-22T01:22:04.257Z,66.18
2023-05-22T01:25:17.089Z,66.29
2023-05-22T01:28:02.816Z,66.30
2023-05-22T01:30:53.396Z,66.34
2023-05-22T01:33:26.104Z,67.11
2023-05-22T01:35:57.516Z,66.51
2023-05-22T01:38:25.448Z,66.76
2023-05-22T01:40:53.894Z,66.93
2023-05-22T01:43:20.844Z,66.30
2023-05-22T01:45:47.743Z,66.24
2023-05-22T01:48:14.529Z,66.45
2023-05-22T01:50:41.896Z,66.27
2023-05-22T01:53:24.763Z,65.48
2023-05-22T01:56:01.762Z,65.84
2023-05-22T01:58:32.907Z,65.71
2023-05-22T02:01:01.456Z,65.95
2023-05-22T02:03:32.287Z,65.49
2023-05-22T02:06:01.886Z,65.48
2023-05-22T02:08:29.862Z,66.64
2023-05-22T02:10:57.828Z,66.69
2023-05-22T02:13:24.791Z,66.18
2023-05-22T02:15:52.518Z,66.36
2023-05-22T02:18:19.314Z,66.51
2023-05-22T02:20:46.589Z,66.25
2023-05-22T02:23:13.792Z,66.37
2023-05-22T02:25:40.770Z,68.44
2023-05-22T02:28:07.502Z,65.61
2023-05-22T02:30:34.290Z,66.10
2023-05-22T02:33:01.154Z,65.92
2023-05-22T02:35:29.658Z,66.68
2023-05-22T02:37:56.405Z,65.78
2023-05-22T02:40:23.371Z,65.11
2023-05-22T02:42:50.283Z,65.27
2023-05-22T02:45:17.888Z,65.24
2023-05-22T02:47:44.941Z,64.46
2023-05-22T02:50:12.012Z,64.54
2023-05-22T02:52:41.900Z,63.83
2023-05-22T02:55:10.479Z,64.23
2023-05-22T02:57:37.321Z,63.87
2023-05-22T03:00:07.047Z,63.92
2023-05-22T03:02:34.826Z,64.40
2023-05-22T03:05:01.589Z,64.10
2023-05-22T03:07:32.074Z,64.32
2023-05-22T03:09:58.700Z,64.11
2023-05-22T03:12:25.578Z,63.59
2023-05-22T03:14:52.250Z,63.35
2023-05-22T03:17:19.175Z,63.55
2023-05-22T03:19:46.448Z,63.30
2023-05-22T03:22:13.275Z,62.93
2023-05-22T03:24:40.270Z,62.83
2023-05-22T03:27:07.667Z,62.60
2023-05-22T03:29:40.215Z,62.53
2023-05-22T03:32:07.265Z,62.48
2023-05-22T03:34:36.298Z,62.74
2023-05-22T03:37:05.241Z,62.34
2023-05-22T03:39:32.358Z,62.15
2023-05-22T03:42:05.481Z,62.00
2023-05-22T03:44:32.413Z,62.12
2023-05-22T03:47:00.800Z,61.60
2023-05-22T03:49:27.492Z,61.36
2023-05-22T03:51:54.231Z,61.11
2023-05-22T03:54:21.403Z,60.56
2023-05-22T03:56:48.200Z,60.49
2023-05-22T03:59:14.972Z,60.45
2023-05-22T04:01:41.790Z,59.86
2023-05-22T04:04:09.621Z,58.98
2023-05-22T04:06:43.054Z,58.53
2023-05-22T04:09:13.586Z,58.08
2023-05-22T04:11:40.292Z,57.62
2023-05-22T04:14:07.053Z,57.66
2023-05-22T04:16:34.160Z,56.94
2023-05-22T04:19:03.247Z,56.34
2023-05-22T04:21:35.949Z,56.42
2023-05-22T04:24:07.161Z,57.02
2023-05-22T04:26:34.234Z,57.43
2023-05-22T04:29:01.246Z,57.62
2023-05-22T04:31:28.496Z,57.51
2023-05-22T04:33:55.947Z,56.97
2023-05-22T04:36:26.121Z,57.44
2023-05-22T04:38:54.123Z,56.71
2023-05-22T04:41:26.630Z,56.42
2023-05-22T04:43:54.591Z,57.01
2023-05-22T04:46:21.365Z,57.31
2023-05-22T04:48:48.373Z,56.69
2023-05-22T04:51:15.957Z,56.60
2023-05-22T04:53:43.009Z,56.23
2023-05-22T04:56:09.989Z,55.14
2023-05-22T04:58:38.398Z,53.64
2023-05-22T05:01:06.272Z,53.04
2023-05-22T05:03:33.995Z,52.09
2023-05-22T05:06:00.744Z,51.63
2023-05-22T05:08:27.608Z,50.58
2023-05-22T05:10:54.288Z,51.00
2023-05-22T05:13:23.544Z,52.54
2023-05-22T05:15:50.655Z,51.65
2023-05-22T05:18:17.613Z,51.65
2023-05-22T05:20:44.469Z,52.14
2023-05-22T05:23:11.396Z,51.43
2023-05-22T05:25:38.759Z,51.71
2023-05-22T05:28:11.667Z,51.18
2023-05-22T05:30:40.828Z,50.86
2023-05-22T05:33:26.598Z,51.89
2023-05-22T05:36:05.682Z,51.87
2023-05-22T05:38:33.750Z,51.48
2023-05-22T05:41:00.653Z,52.17
2023-05-22T05:43:28.380Z,52.10
2023-05-22T05:46:00.619Z,52.71
2023-05-22T05:48:27.491Z,52.65
2023-05-22T05:50:54.419Z,51.22
2023-05-22T05:53:22.438Z,51.49
2023-05-22T05:55:54.914Z,50.70
2023-05-22T05:58:21.820Z,50.08
2023-05-22T06:01:11.868Z,50.41
2023-05-22T06:03:40.194Z,49.23
2023-05-22T06:06:14.122Z,48.92
2023-05-22T06:08:59.724Z,47.15
2023-05-22T06:11:31.499Z,47.13
2023-05-22T06:13:59.483Z,47.34
2023-05-22T06:16:28.203Z,46.08
2023-05-22T06:18:57.219Z,46.32
2023-05-22T06:21:24.568Z,44.70
2023-05-22T06:23:51.692Z,45.13
2023-05-22T06:26:23.541Z,44.55
2023-05-22T06:28:53.556Z,45.28
2023-05-22T06:31:22.910Z,45.51
2023-05-22T06:33:52.010Z,45.53
2023-05-22T06:36:23.036Z,45.16
2023-05-22T06:38:51.935Z,44.90
2023-05-22T06:41:38.556Z,44.87
2023-05-22T06:44:07.294Z,44.85
2023-05-22T06:46:38.525Z,44.76
2023-05-22T06:49:06.350Z,44.20
2023-05-22T06:51:43.245Z,44.38
2023-05-22T06:54:13.892Z,44.26
2023-05-22T06:56:43.319Z,43.68
2023-05-22T06:59:14.988Z,44.09
2023-05-22T07:02:01.759Z,42.74
2023-05-22T07:05:08.442Z,43.05
2023-05-22T07:07:56.911Z,42.88
2023-05-22T07:10:25.052Z,42.37
2023-05-22T07:12:51.896Z,43.22
2023-05-22T07:15:21.995Z,43.05
2023-05-22T07:17:53.878Z,42.91
2023-05-22T07:20:20.922Z,43.21
2023-05-22T07:22:59.505Z,42.30
2023-05-22T07:25:26.623Z,41.36
2023-05-22T07:27:53.482Z,42.36
2023-05-22T07:30:22.513Z,42.00
2023-05-22T07:32:49.527Z,41.75
2023-05-22T07:35:16.603Z,40.99
2023-05-22T07:37:44.060Z,39.95
2023-05-22T07:40:11.294Z,39.36
2023-05-22T07:42:38.462Z,39.10
2023-05-22T07:45:07.540Z,38.43
2023-05-22T07:47:34.322Z,39.08
2023-05-22T07:50:04.425Z,38.04
2023-05-22T07:52:33.410Z,38.17
2023-05-22T07:55:03.272Z,37.94
2023-05-22T07:57:30.798Z,37.64
2023-05-22T08:00:09.449Z,37.89
2023-05-22T08:02:40.772Z,36.99
2023-05-22T08:05:08.917Z,36.35
2023-05-22T08:07:36.408Z,36.44
2023-05-22T08:10:08.248Z,36.37
2023-05-22T08:12:35.427Z,35.66
2023-05-22T08:15:02.156Z,35.67
2023-05-22T08:17:28.921Z,34.23
2023-05-22T08:19:55.922Z,34.77
2023-05-22T08:22:22.715Z,34.56
2023-05-22T08:24:49.614Z,34.10
2023-05-22T08:27:16.339Z,33.92
2023-05-22T08:29:43.072Z,34.21
2023-05-22T08:32:09.784Z,33.36
2023-05-22T08:34:36.567Z,33.49
2023-05-22T08:37:04.651Z,33.83
2023-05-22T08:39:33.202Z,32.72
2023-05-22T08:41:59.928Z,31.91
2023-05-22T08:44:26.694Z,32.08
2023-05-22T08:46:56.549Z,33.08
2023-05-22T08:49:24.479Z,32.95
2023-05-22T08:51:56.477Z,33.63
2023-05-22T08:54:26.392Z,33.75
2023-05-22T08:56:57.216Z,34.41
2023-05-22T08:59:24.877Z,34.11
2023-05-22T09:01:53.449Z,34.51
2023-05-22T09:04:23.804Z,34.77
2023-05-22T09:06:51.105Z,34.33
2023-05-22T09:09:18.148Z,34.60
2023-05-22T09:11:44.904Z,34.41
2023-05-22T09:14:12.328Z,33.82
2023-05-22T09:16:51.788Z,33.56
2023-05-22T09:19:19.117Z,33.81
2023-05-22T09:21:46.313Z,33.73
2023-05-22T09:24:13.492Z,33.53
2023-05-22T09:26:40.674Z,32.13
2023-05-22T09:29:08.084Z,31.92
2023-05-22T09:31:42.763Z,32.21
2023-05-22T09:34:11.219Z,32.07
2023-05-22T09:36:39.438Z,31.24
2023-05-22T09:39:06.492Z,31.40
2023-05-22T09:41:39.595Z,31.27
2023-05-22T09:44:14.028Z,30.92
2023-05-22T09:46:42.894Z,31.07
2023-05-22T09:49:09.816Z,31.83
2023-05-22T09:51:43.923Z,30.96
2023-05-22T09:54:12.315Z,31.18
2023-05-22T09:56:44.289Z,30.10
2023-05-22T09:59:13.927Z,29.74
2023-05-22T10:01:42.589Z,29.14
2023-05-22T10:04:15.967Z,29.21
2023-05-22T10:06:47.308Z,29.07
2023-05-22T10:09:19.692Z,28.93
2023-05-22T10:11:47.440Z,28.84
2023-05-22T10:14:15.899Z,28.23
2023-05-22T10:16:44.951Z,28.19
2023-05-22T10:19:13.062Z,28.57
2023-05-22T10:21:41.639Z,27.46
2023-05-22T10:24:09.032Z,28.68
2023-05-22T10:26:36.272Z,27.75
2023-05-22T10:29:10.897Z,27.77
2023-05-22T10:31:56.446Z,26.99
2023-05-22T10:34:47.319Z,27.25
2023-05-22T10:37:41.969Z,26.98
2023-05-22T10:40:14.866Z,26.30
2023-05-22T10:42:41.737Z,26.56
2023-05-22T10:45:09.093Z,26.30
2023-05-22T10:47:36.605Z,26.48
2023-05-22T10:50:11.210Z,26.35
2023-05-22T10:52:39.966Z,25.10
2023-05-22T10:55:09.014Z,25.56
2023-05-22T10:57:39.425Z,26.21
2023-05-22T11:00:15.632Z,26.31
2023-05-22T11:02:46.104Z,26.22
2023-05-22T11:05:25.622Z,25.65
2023-05-22T11:07:52.531Z,25.84
2023-05-22T11:14:58.732Z,25.36
2023-05-22T11:18:12.065Z,25.26
2023-05-22T11:21:08.931Z,25.98
2023-05-22T11:23:50.445Z,26.04
2023-05-22T11:26:28.291Z,25.86
2023-05-22T11:28:56.642Z,25.65
2023-05-22T11:31:23.942Z,25.80
2023-05-22T11:33:53.735Z,26.39
2023-05-22T11:36:20.928Z,27.06
2023-05-22T11:38:47.600Z,27.01
2023-05-22T11:41:15.239Z,27.28
2023-05-22T11:43:45.123Z,27.39
2023-05-22T11:46:12.472Z,26.77
2023-05-22T11:48:41.744Z,27.18
2023-05-22T11:51:10.266Z,27.44
2023-05-22T11:53:36.991Z,27.26
2023-05-22T11:56:05.679Z,25.93
2023-05-22T11:58:33.185Z,26.91
2023-05-22T12:01:02.513Z,26.95
2023-05-22T12:03:30.580Z,27.07
2023-05-22T12:05:57.851Z,27.15
2023-05-22T12:08:27.677Z,27.05
2023-05-22T12:10:57.438Z,27.39
2023-05-22T12:13:31.832Z,27.14
2023-05-22T12:16:00.946Z,26.51
2023-05-22T12:18:35.545Z,27.05
2023-05-22T12:21:05.944Z,27.75
2023-05-22T12:23:32.549Z,26.89
2023-05-22T12:26:01.103Z,26.67
2023-05-22T12:28:28.057Z,27.83
2023-05-22T12:30:55.838Z,26.88
2023-05-22T12:33:29.627Z,27.25
2023-05-22T12:35:58.616Z,27.74
2023-05-22T12:38:31.699Z,26.92
2023-05-22T12:41:00.215Z,27.49
2023-05-22T12:43:27.248Z,27.81
2023-05-22T12:45:54.027Z,27.69
2023-05-22T12:48:20.740Z,27.56
2023-05-22T12:50:47.437Z,27.63
2023-05-22T12:53:14.339Z,27.86
2023-05-22T12:55:41.301Z,27.03
2023-05-22T12:58:08.065Z,27.59
2023-05-22T13:00:35.646Z,27.03
2023-05-22T13:03:03.230Z,26.39
2023-05-22T13:05:30.070Z,27.50
2023-05-22T13:07:57.021Z,27.98
2023-05-22T13:10:23.860Z,26.57
2023-05-22T13:12:51.667Z,26.32
2023-05-22T13:15:18.786Z,26.55
2023-05-22T13:17:45.884Z,26.27
2023-05-22T13:20:13.482Z,26.59
2023-05-22T13:22:41.722Z,27.80
2023-05-22T13:25:08.825Z,27.41
2023-05-22T13:27:35.772Z,26.65
2023-05-22T13:30:02.463Z,27.36
2023-05-22T13:32:29.198Z,26.34
2023-05-22T13:34:55.872Z,27.05
2023-05-22T13:37:22.756Z,26.77
2023-05-22T13:39:49.421Z,26.72
2023-05-22T13:42:17.553Z,26.29
2023-05-22T13:44:44.336Z,26.23
2023-05-22T13:47:11.199Z,27.01
2023-05-22T13:49:37.956Z,26.88
2023-05-22T13:52:05.117Z,27.53
2023-05-22T13:54:31.837Z,27.54
2023-05-22T13:56:59.932Z,27.62
2023-05-22T13:59:27.189Z,28.00
2023-05-22T14:01:54.032Z,27.83
2023-05-22T14:04:20.835Z,27.43
2023-05-22T14:06:47.569Z,28.00
2023-05-22T14:09:17.020Z,28.28
2023-05-22T14:11:43.898Z,28.61
2023-05-22T14:14:10.938Z,28.33
2023-05-22T14:16:37.781Z,28.62
2023-05-22T14:19:04.601Z,28.99
2023-05-22T14:21:31.423Z,28.77
2023-05-22T14:23:58.079Z,28.56
2023-05-22T14:26:24.826Z,28.97
2023-05-22T14:28:51.598Z,28.54
2023-05-22T14:31:18.392Z,28.95
2023-05-22T14:33:45.319Z,29.38
2023-05-22T14:36:12.114Z,29.50
2023-05-22T14:38:38.847Z,29.75
2023-05-22T14:41:05.671Z,29.29
2023-05-22T14:43:33.497Z,29.49
2023-05-22T14:46:00.442Z,29.49
2023-05-22T14:48:29.259Z,29.64
2023-05-22T14:50:56.217Z,29.53
2023-05-22T14:53:23.377Z,28.53
2023-05-22T14:55:50.338Z,29.22
2023-05-22T14:58:17.075Z,29.04
2023-05-22T15:00:47.262Z,29.13
2023-05-22T15:03:14.082Z,29.40
2023-05-22T15:05:41.055Z,29.95
2023-05-22T15:08:07.986Z,29.62
2023-05-22T15:10:34.819Z,29.72
2023-05-22T15:13:01.596Z,30.03
2023-05-22T15:15:28.498Z,29.74
2023-05-22T15:17:56.325Z,29.95
2023-05-22T15:20:23.157Z,29.75
2023-05-22T15:22:49.883Z,30.24
2023-05-22T15:25:16.646Z,30.56
2023-05-22T15:27:43.601Z,31.45
2023-05-22T15:30:12.064Z,30.67
2023-05-22T15:32:39.265Z,31.23
2023-05-22T15:35:10.575Z,31.89
2023-05-22T15:37:37.378Z,32.26
2023-05-22T15:40:04.638Z,32.60
2023-05-22T15:42:31.942Z,33.03
2023-05-22T15:45:00.649Z,33.05
2023-05-22T15:47:27.545Z,33.47
2023-05-22T15:49:54.247Z,32.96
2023-05-22T15:52:23.364Z,33.46
2023-05-22T15:54:50.183Z,34.01
2023-05-22T15:57:17.010Z,34.26
2023-05-22T15:59:43.741Z,34.85
2023-05-22T16:02:10.408Z,34.25
2023-05-22T16:04:37.058Z,36.14
2023-05-22T16:07:03.835Z,38.21
2023-05-22T16:09:32.667Z,40.82
2023-05-22T16:12:02.551Z,41.31
2023-05-22T16:14:30.057Z,42.22
2023-05-22T16:16:56.885Z,43.70
2023-05-22T16:19:24.232Z,46.23
2023-05-22T16:21:50.960Z,46.41
2023-05-22T16:24:17.630Z,47.22
2023-05-22T16:26:44.325Z,49.28
2023-05-22T16:29:11.003Z,53.84
2023-05-22T16:31:37.777Z,51.93
2023-05-22T16:34:05.285Z,51.09
2023-05-22T16:36:32.561Z,52.15
2023-05-22T16:38:59.330Z,52.26
2023-05-22T16:41:26.903Z,52.43
2023-05-22T16:43:53.826Z,52.70
2023-05-22T16:46:20.711Z,54.32
2023-05-22T16:48:47.397Z,54.66
2023-05-22T16:51:14.177Z,56.15
2023-05-22T16:53:41.851Z,58.16
2023-05-22T16:56:08.639Z,58.41
2023-05-22T16:58:37.791Z,59.48
2023-05-22T17:01:06.443Z,59.94
2023-05-22T17:03:33.943Z,59.04
2023-05-22T17:06:03.069Z,59.44
2023-05-22T17:08:30.195Z,60.64
2023-05-22T17:10:56.952Z,60.68
2023-05-22T17:13:23.891Z,60.93
2023-05-22T17:15:51.322Z,59.50
2023-05-22T17:18:22.002Z,61.11
2023-05-22T17:20:53.974Z,62.74
2023-05-22T17:23:20.861Z,62.34
2023-05-22T17:25:47.774Z,64.05
2023-05-22T17:28:14.980Z,65.01
2023-05-22T17:30:43.296Z,63.75
2023-05-22T17:33:10.955Z,60.29
2023-05-22T17:35:37.924Z,61.61
2023-05-22T17:38:04.757Z,63.55
2023-05-22T17:43:02.509Z,64.16
2023-05-22T17:45:29.907Z,62.64
2023-05-22T17:47:56.644Z,63.80
2023-05-22T17:50:23.301Z,62.76
2023-05-22T17:52:49.971Z,62.23
2023-05-22T17:55:17.061Z,63.67
2023-05-22T17:57:43.716Z,64.84
2023-05-22T18:00:11.339Z,66.71
2023-05-22T18:02:40.908Z,67.61
2023-05-22T18:05:08.329Z,67.38
2023-05-22T18:07:35.013Z,67.05
2023-05-22T18:10:01.655Z,66.58
2023-05-22T18:12:31.977Z,66.03
2023-05-22T18:14:59.204Z,66.66
2023-05-22T18:17:26.517Z,67.31
2023-05-22T18:19:53.203Z,67.12
2023-05-22T18:22:21.775Z,67.74
2023-05-22T18:24:53.059Z,68.07
2023-05-22T18:27:20.664Z,67.90
2023-05-22T18:29:47.332Z,67.70
2023-05-22T18:32:14.009Z,67.36
2023-05-22T18:34:42.369Z,68.43
2023-05-22T18:37:09.841Z,68.24
2023-05-22T18:39:37.433Z,69.38
2023-05-22T18:42:04.461Z,69.06
2023-05-22T18:44:31.164Z,69.74
2023-05-22T18:46:58.040Z,69.32
2023-05-22T18:49:24.754Z,69.33
2023-05-22T18:51:52.581Z,71.34
2023-05-22T18:54:19.263Z,71.32
2023-05-22T18:56:45.994Z,70.89
2023-05-22T18:59:12.670Z,69.98
2023-05-22T19:01:39.496Z,73.01
2023-05-22T19:04:07.589Z,70.42
2023-05-22T19:06:34.959Z,71.76
2023-05-22T19:09:04.711Z,70.64
2023-05-22T19:11:31.885Z,70.28
2023-05-22T19:13:59.707Z,70.20
2023-05-22T19:16:26.456Z,69.40
2023-05-22T19:18:53.393Z,69.71
2023-05-22T19:21:20.275Z,70.23
2023-05-22T19:23:47.128Z,67.60
2023-05-22T19:26:14.148Z,66.42
2023-05-22T19:28:41.167Z,66.41
2023-05-22T19:31:07.840Z,66.08
2023-05-22T19:33:34.557Z,64.67
2023-05-22T19:36:06.499Z,65.58
2023-05-22T19:38:33.344Z,67.50
2023-05-22T19:41:00.035Z,65.83
2023-05-22T19:43:26.857Z,66.94
2023-05-22T19:45:54.156Z,66.68
2023-05-22T19:48:21.414Z,67.75
2023-05-22T19:50:48.075Z,66.61
2023-05-22T19:53:14.897Z,65.74
2023-05-22T19:55:41.619Z,67.35
2023-05-22T19:58:08.237Z,68.11
2023-05-22T20:00:35.744Z,68.11
2023-05-22T20:03:02.551Z,65.75
2023-05-22T20:05:32.162Z,67.31
2023-05-22T20:07:58.827Z,67.07
2023-05-22T20:10:26.016Z,66.06
2023-05-22T20:12:55.987Z,66.54
2023-05-22T20:15:24.147Z,67.16
2023-05-22T20:17:53.014Z,68.29
2023-05-22T20:20:20.480Z,69.27
2023-05-22T20:22:47.352Z,69.12
2023-05-22T20:25:14.162Z,68.16
2023-05-22T20:27:40.906Z,69.74
2023-05-22T20:30:11.260Z,68.72
2023-05-22T20:32:39.190Z,67.71
2023-05-22T20:35:07.204Z,69.61
2023-05-22T20:37:35.039Z,66.31
2023-05-22T20:40:09.340Z,67.15
2023-05-22T20:42:37.659Z,67.60
2023-05-22T20:45:05.704Z,68.99
2023-05-22T20:47:34.445Z,70.96
2023-05-22T20:50:01.128Z,70.04
2023-05-22T20:52:30.405Z,68.63
2023-05-22T20:54:57.921Z,69.15
2023-05-22T20:57:25.560Z,69.68
2023-05-22T20:59:55.978Z,68.39
2023-05-22T21:02:22.642Z,68.68
2023-05-22T21:04:49.356Z,70.13
2023-05-22T21:07:16.160Z,69.83
2023-05-22T21:09:42.843Z,71.96
2023-05-22T21:12:12.037Z,69.58
2023-05-22T21:14:38.702Z,70.61
2023-05-22T21:17:05.727Z,73.15
2023-05-22T21:19:32.504Z,73.64
2023-05-22T21:21:59.237Z,73.70
2023-05-22T21:24:25.907Z,71.70
2023-05-22T21:26:52.601Z,73.76
2023-05-22T21:29:19.286Z,74.66
2023-05-22T21:31:46.053Z,75.06
2023-05-22T21:34:12.792Z,75.67
2023-05-22T21:36:41.365Z,76.36
2023-05-22T21:39:08.041Z,74.96
2023-05-22T21:41:34.739Z,75.38
2023-05-22T21:44:01.522Z,76.16
2023-05-22T21:46:28.284Z,75.71
2023-05-22T21:48:55.205Z,75.61
2023-05-22T21:51:21.860Z,75.24
2023-05-22T21:53:48.488Z,76.40
2023-05-22T21:56:15.213Z,75.01
2023-05-22T21:58:42.149Z,75.42
2023-05-22T22:01:09.363Z,76.57
2023-05-22T22:03:36.264Z,75.24
2023-05-22T22:06:03.217Z,75.23
2023-05-22T22:08:30.005Z,75.24
2023-05-22T22:10:58.323Z,75.19
2023-05-22T22:13:25.012Z,75.26
2023-05-22T22:15:51.782Z,74.72
2023-05-22T22:18:18.944Z,74.69
2023-05-22T22:20:45.843Z,75.10
2023-05-22T22:23:12.650Z,75.39
2023-05-22T22:25:39.636Z,76.48
2023-05-22T22:28:07.408Z,76.43
2023-05-22T22:30:35.149Z,76.13
2023-05-22T22:33:02.162Z,75.19
2023-05-22T22:35:28.861Z,75.36
2023-05-22T22:37:55.703Z,75.32
2023-05-22T22:40:23.393Z,76.02
2023-05-22T22:42:51.648Z,76.41
2023-05-22T22:45:18.400Z,75.19
2023-05-22T22:47:45.914Z,75.20
2023-05-22T22:50:12.723Z,75.95
2023-05-22T22:52:45.376Z,76.08
2023-05-22T22:55:12.461Z,76.04
2023-05-22T22:57:39.455Z,75.26
2023-05-22T23:00:06.963Z,77.47
2023-05-22T23:02:33.792Z,76.33
2023-05-22T23:05:02.100Z,76.15
2023-05-22T23:07:28.814Z,76.29
2023-05-22T23:09:55.490Z,76.30
2023-05-22T23:12:22.210Z,76.96
2023-05-22T23:14:50.425Z,76.22
2023-05-22T23:17:17.162Z,76.25
2023-05-22T23:19:44.023Z,76.11
2023-05-22T23:22:10.926Z,76.19
2023-05-22T23:24:37.614Z,77.03
2023-05-22T23:27:04.416Z,76.62
2023-05-22T23:29:31.146Z,76.92
2023-05-22T23:31:58.073Z,77.40
2023-05-22T23:34:24.929Z,77.25
2023-05-22T23:36:51.708Z,77.17
2023-05-22T23:39:19.059Z,76.35
2023-05-22T23:41:45.789Z,76.38
2023-05-22T23:44:12.495Z,76.52
2023-05-22T23:46:39.805Z,77.40
2023-05-22T23:49:07.648Z,77.27
2023-05-22T23:51:34.407Z,78.02
2023-05-22T23:54:01.283Z,77.49
2023-05-22T23:56:28.150Z,78.20
2023-05-22T23:58:55.042Z,77.87
